RPLC/CRK METAR and TAF weather

Enter ICAO airport designator
Station Type Date Time Source
RPLC METAR 2019/10/15 18:00 UTC NOAA

RPLC 151800Z 36004KT 8000 FEW020 SCT300 26/22 Q1012 NOSIG RMK A2988


Station Type Date Time Source
RPLC Decoded METAR 2019/10/15 18:00 UTC NOAA

Clarkfield Pampanga International Airport, Philippines (RPLC) 15-11N 120-33E
Oct 15, 2019 - 02:00 PM EDT / 2019.10.15 1800 UTC
Wind: from the N (360 degrees) at 5 MPH (4 KT):0
Visibility: 4 mile(s):0
Sky conditions: partly cloudy
Temperature: 78 F (26 C)
Dew Point: 71 F (22 C)
Relative Humidity: 78%
Pressure (altimeter): 29.88 in. Hg (1012 hPa)
ob: RPLC 151800Z 36004KT 8000 FEW020 SCT300 26/22 Q1012 NOSIG RMK A2988
cycle: 18

Station Type Date Time Source
RPLC TAF 2019/10/15 18:03 UTC NOAA

TAF RPLC 151700Z 1518/1624 04006KT 9999 FEW020 BKN300 TX33/1606Z TN24/1521Z
TEMPO 1518/1524 33008KT 8000 SCT020 BKN100

Example: see airport list